METAR Data
IDs: Format: Raw Decoded Include TAF

Data at: 1419 UTC 11 Dec 2018

LIMC 111350Z 35003KT 260V030 CAVOK 12/M09 Q1017 NOSIG

TAF LIMC 111100Z 1112/1218 35007KT CAVOK

LIME 111350Z 18005KT 150V220 CAVOK 11/M09 Q1017 NOSIG

TAF LIME 111100Z 1112/1212 VRB05KT CAVOK

LIMF 111350Z 21008KT CAVOK 10/M03 Q1018

TAF LIMF 111100Z 1112/1212 VRB05KT CAVOK

LIMG 111350Z 27007KT 9999 FEW060 13/04 Q1018
No TAF found for LIMG

LIMJ 111350Z 35007KT 310V040 CAVOK 14/M09 Q1017

TAF LIMJ 111100Z 1112/1212 03008KT CAVOK
  BECMG 1205/1207 13010KT RA BKN012


LIML 111350Z 34007KT CAVOK 13/M11 Q1017 NOSIG

TAF LIML 111100Z 1112/1212 VRB05KT CAVOK

LIMP 111350Z 30007KT CAVOK 11/M04 Q1019

TAF LIMP 111100Z 1112/1212 VRB05KT CAVOK

LIPA 111355Z 14004KT CAVOK 11/M01 Q1017 RMK SKC VIS MIN 9999 WIND THR05 00000KT WIND THR23 12004KT A3004 BLU

TAF LIPA 111100Z 1112/1121 VRB05KT CAVOK

LIPB 111350Z 04010KT 340V060 9999 FEW075 10/M14 Q1019

TAF LIPB 111100Z 1112/1212 VRB05KT 9999 FEW040

LIPC 111355Z 33007KT 9999 FEW030 10/01 Q1018 RMK FEW VIS MIN 9999 WIND THR11 32008KT WIND THR29 33008KT BLU

TAF LIPC 111100Z 1112/1121 30008KT CAVOK

LIPH 111350Z 26004KT CAVOK 13/M09 Q1017

TAF LIPH 111100Z 1112/1212 VRB05KT CAVOK

LIPI 111355Z /////KT CAVOK 11/M06 Q1017 RMK SKC VIS MIN 9999 WIND THR06 20004KT WIND THR24 22005KT BLU

TAF LIPI 111100Z 1112/1121 VRB03KT CAVOK

LIPK 111350Z 34005KT 9999 FEW030 11/M04 Q1018
No TAF found for LIPK

LIPL 111355Z 10001KT CAVOK 10/01 Q1018 RMK SKC VIS MIN 9999 WIND THR31 04002KT WIND THR13 08001KT BLU

TAF LIPL 111100Z 1112/1121 30005KT CAVOK

LIPO 111350Z 28002KT CAVOK 11/M04 Q1018

TAF LIPO 111100Z 1112/1212 VRB05KT CAVOK

LIPQ 111350Z 25005KT CAVOK 11/00 Q1017

TAF LIPQ 111100Z 1112/1212 VRB05KT CAVOK

LIPR 111350Z 30007KT 9999 FEW035 11/01 Q1018

TAF LIPR 111100Z 1112/1121 VRB05KT CAVOK

LIPZ 111350Z 16004KT CAVOK 11/02 Q1017 NOSIG

TAF LIPZ 111100Z 1112/1218 35010KT CAVOK
  BECMG 1116/1118 VRB05KT


LIRP 111345Z 14005KT CAVOK 13/M04 Q1017 NOSIG

TAF LIRP 111100Z 1112/1212 12005KT CAVOK
  BECMG 1116/1118 9999 SCT080


LFKB 111400Z AUTO 02007KT CAVOK 15/02 Q1017 BECMG 10010KT

TAF LFKB 110800Z 1109/1209 10010KT CAVOK TX16/1112Z TN05/1204Z
  TEMPO 1109/1114 SCT030
  BECMG 1119/1120 24004KT CAVOK


LFKC 111400Z AUTO VRB03KT CAVOK 14/08 Q1016 NOSIG

TAF LFKC 110800Z 1109/1209 34008KT CAVOK TX15/1113Z TN05/1204Z
  BECMG 1118/1120 18004KT


LFKJ 111400Z AUTO 24008KT 9999 BKN045 BKN054 16/07 Q1016 NOSIG

TAF LFKJ 110800Z 1109/1209 24008KT CAVOK
  BECMG 1118/1120 05005KT
  BECMG 1203/1206 BKN030


LFLL 111400Z 36013KT 9999 SCT030 08/02 Q1023 NOSIG

TAF LFLL 111100Z 1112/1218 35012KT CAVOK
  BECMG 1121/1124 VRB02KT 2000 BR BKN010
  PROB40
  TEMPO 1200/1210 0800 BCFG BKN003
  PROB30
  TEMPO 1203/1209 0500 FG OVC001
  TEMPO 1212/1218 NSC


LFML 111400Z AUTO 33009KT CAVOK 12/03 Q1018 NOSIG

TAF LFML 110800Z 1109/1215 34017KT CAVOK TX12/1113Z TN02/1203Z
  BECMG 1116/1118 35007KT
  TEMPO 1121/1207 VRB03KT
  PROB40
  TEMPO 1200/1203 SCT033
  BECMG 1207/1209 32010KT


LFMN 111400Z 10009KT 9999 FEW053 SCT063 14/06 Q1017 NOSIG

TAF AMD LFMN 111309Z 1113/1215 09010KT 9999 SCT040
  TEMPO 1114/1116 18005KT
  BECMG 1119/1121 34010KT
  BECMG 1203/1205 BKN030
  BECMG 1209/1211 05008KT


LOWI 111350Z 07003KT 020V110 9999 FEW015 SCT050 BKN070 02/M02 Q1021 R08/29//95 NOSIG

TAF LOWI 111115Z 1112/1212 08005KT 9999 FEW020 BKN060 TX02/1112Z TNM05/1208Z
  TEMPO 1112/1115 27008KT -SHSN
  PROB40
  TEMPO 1112/1116 27015G25KT SCT060
  BECMG 1200/1202 27004KT SCT060
  PROB40
  TEMPO 1200/1206 1200 FZBCFG SCT002


LOWL 111350Z 26018G28KT 9999 FEW012 SCT020 BKN047 03/M01 Q1018 NOSIG

TAF LOWL 111115Z 1112/1212 27012KT 9999 SCT012 BKN025 TX02/1112Z TN01/1205Z
  TEMPO 1112/1212 28015G25KT 6000 -SHRASN BKN012
  PROB40
  TEMPO 1112/1115 29020G30KT 2500 SHSN


LOWW 111350Z 28022G32KT 9999 -SHRASN FEW019 BKN027 03/M00 Q1014 NOSIG

TAF LOWW 111415Z 1115/1221 28014KT 9999 -RA BKN030 TX04/1211Z TNM01/1221Z
  TEMPO 1115/1203 29018G28KT 7000 -SHRASN SCT012 BKN020
  TEMPO 1203/1217 31015KT 4000 -SNRA SCT010 BKN015
  FM121700 35005KT 9999 FEW008 BKN015


LSGG 111350Z 06008KT 9999 FEW032 07/M00 Q1022 NOSIG

TAF LSGG 111125Z 1112/1218 06005KT 9999 FEW025 TX07/1114Z TNM01/1206Z TX02/1214Z
  PROB30 1200/1208 BKN009


LSZH 111350Z 32004KT 280V010 9999 FEW028 SCT059 04/M02 Q1023 NOSIG

TAF LSZH 111125Z 1112/1218 VRB02KT 9999 FEW015 TX04/1113Z TNM05/1206Z TXM01/1213Z
  BECMG 1119/1122 CAVOK
  PROB40 1122/1209 4500 MIFG NSC
  PROB30 1203/1210 3000 BR BKN005
  PROB40 1212/1216 04005KT